createdAt,value
2017-07-02T00:02:24.910Z,20.60
2017-07-02T00:04:53.659Z,20.60
2017-07-02T00:07:21.925Z,20.60
2017-07-02T00:09:50.159Z,20.70
2017-07-02T00:12:18.486Z,20.70
2017-07-02T00:14:46.720Z,20.80
2017-07-02T00:17:15.363Z,20.80
2017-07-02T00:19:43.862Z,20.80
2017-07-02T00:22:12.084Z,20.90
2017-07-02T00:24:40.348Z,21.00
2017-07-02T00:27:08.589Z,21.20
2017-07-02T00:29:36.849Z,21.50
2017-07-02T00:32:05.118Z,21.60
2017-07-02T00:34:33.354Z,21.70
2017-07-02T00:37:01.583Z,21.70
2017-07-02T00:39:29.869Z,21.40
2017-07-02T00:41:58.103Z,21.20
2017-07-02T00:44:26.339Z,21.20
2017-07-02T00:46:54.990Z,21.30
2017-07-02T00:49:23.224Z,21.40
2017-07-02T00:51:51.461Z,21.40
2017-07-02T00:54:19.795Z,21.20
2017-07-02T00:56:48.059Z,21.20
2017-07-02T00:59:16.300Z,21.30
2017-07-02T01:01:44.566Z,21.40
2017-07-02T01:04:13.569Z,21.40
2017-07-02T01:06:42.232Z,21.60
2017-07-02T01:09:10.493Z,21.60
2017-07-02T01:11:38.715Z,21.60
2017-07-02T01:14:06.972Z,21.70
2017-07-02T01:16:35.215Z,21.70
2017-07-02T01:19:03.460Z,21.70
2017-07-02T01:21:31.746Z,21.60
2017-07-02T01:23:59.984Z,21.60
2017-07-02T01:26:28.613Z,21.70
2017-07-02T01:28:56.892Z,21.70
2017-07-02T01:31:25.124Z,21.70
2017-07-02T01:33:53.396Z,21.60
2017-07-02T01:36:21.673Z,21.60
2017-07-02T01:38:50.297Z,21.60
2017-07-02T01:41:18.527Z,21.60
2017-07-02T01:43:47.220Z,21.60
2017-07-02T01:46:15.467Z,21.60
2017-07-02T01:48:43.696Z,21.60
2017-07-02T01:51:11.983Z,21.60
2017-07-02T01:53:40.231Z,21.60
2017-07-02T01:56:08.851Z,21.50
2017-07-02T01:58:37.464Z,21.50
2017-07-02T02:01:17.732Z,21.50
2017-07-02T02:03:45.996Z,21.50
2017-07-02T02:06:14.242Z,21.50
2017-07-02T02:08:42.487Z,21.50
2017-07-02T02:11:10.752Z,21.50
2017-07-02T02:13:39.299Z,21.40
2017-07-02T02:16:07.547Z,21.30
2017-07-02T02:18:35.808Z,21.30
2017-07-02T02:21:04.099Z,21.30
2017-07-02T02:23:32.613Z,21.30
2017-07-02T02:26:00.991Z,21.20
2017-07-02T02:28:29.466Z,21.30
2017-07-02T02:30:57.708Z,21.30
2017-07-02T02:33:25.985Z,21.30
2017-07-02T02:35:54.225Z,21.30
2017-07-02T02:38:23.192Z,21.40
2017-07-02T02:40:51.454Z,21.40
2017-07-02T02:43:19.701Z,21.30
2017-07-02T02:45:47.951Z,21.40
2017-07-02T02:48:16.232Z,21.40
2017-07-02T02:50:44.471Z,21.30
2017-07-02T02:53:12.722Z,21.30
2017-07-02T02:55:40.990Z,21.30
2017-07-02T02:58:09.236Z,21.30
2017-07-02T03:00:37.702Z,21.20
2017-07-02T03:03:06.388Z,20.50
2017-07-02T03:05:35.026Z,20.20
2017-07-02T03:08:03.263Z,20.20
2017-07-02T03:10:31.632Z,20.00
2017-07-02T03:12:59.881Z,20.10
2017-07-02T03:15:28.123Z,20.30
2017-07-02T03:17:56.399Z,20.50
2017-07-02T03:20:24.659Z,20.60
2017-07-02T03:22:52.900Z,20.50
2017-07-02T03:25:21.559Z,20.20
2017-07-02T03:27:50.236Z,20.10
2017-07-02T03:30:18.476Z,20.10
2017-07-02T03:32:46.727Z,20.00
2017-07-02T03:35:15.004Z,20.20
2017-07-02T03:37:43.203Z,20.40
2017-07-02T03:40:11.475Z,20.50
2017-07-02T03:42:39.723Z,20.70
2017-07-02T03:45:08.365Z,20.90
2017-07-02T03:47:36.662Z,20.90
2017-07-02T03:50:04.892Z,21.00
2017-07-02T03:52:33.137Z,21.10
2017-07-02T03:55:01.563Z,21.10
2017-07-02T03:57:29.795Z,21.10
2017-07-02T03:59:58.040Z,21.00
2017-07-02T04:02:26.328Z,21.00
2017-07-02T04:04:54.575Z,20.80
2017-07-02T04:07:22.821Z,20.70
2017-07-02T04:09:51.103Z,20.50
2017-07-02T04:12:19.403Z,20.60
2017-07-02T04:14:47.639Z,20.50
2017-07-02T04:17:15.891Z,20.30
2017-07-02T04:19:44.561Z,20.40
2017-07-02T04:22:12.796Z,20.40
2017-07-02T04:24:41.028Z,20.30
2017-07-02T04:27:09.320Z,20.30
2017-07-02T04:29:37.552Z,20.50
2017-07-02T04:32:06.355Z,20.60
2017-07-02T04:34:34.624Z,20.70
2017-07-02T04:37:02.851Z,20.80
2017-07-02T04:39:31.375Z,20.70
2017-07-02T04:41:59.650Z,20.70
2017-07-02T04:44:27.875Z,20.60
2017-07-02T04:46:56.112Z,20.60
2017-07-02T04:49:24.379Z,20.50
2017-07-02T04:51:52.616Z,20.50
2017-07-02T04:54:20.856Z,20.70
2017-07-02T04:56:49.615Z,20.80
2017-07-02T04:59:17.852Z,20.80
2017-07-02T05:01:46.084Z,20.90
2017-07-02T05:04:14.449Z,20.90
2017-07-02T05:06:42.845Z,20.80
2017-07-02T05:09:11.151Z,20.50
2017-07-02T05:11:39.480Z,20.30
2017-07-02T05:14:07.712Z,20.40
2017-07-02T05:16:35.993Z,20.30
2017-07-02T05:19:04.268Z,20.40
2017-07-02T05:21:32.513Z,20.50
2017-07-02T05:24:00.953Z,20.60
2017-07-02T05:26:29.210Z,20.60
2017-07-02T05:28:57.443Z,20.60
2017-07-02T05:31:25.686Z,20.70
2017-07-02T05:33:53.954Z,20.70
2017-07-02T05:36:22.192Z,20.70
2017-07-02T05:38:50.449Z,20.40
2017-07-02T05:41:18.731Z,20.20
2017-07-02T05:43:46.965Z,20.20
2017-07-02T05:46:15.203Z,20.40
2017-07-02T05:48:43.472Z,20.60
2017-07-02T05:51:11.718Z,20.40
2017-07-02T05:53:40.364Z,20.30
2017-07-02T05:56:08.711Z,20.30
2017-07-02T05:58:36.928Z,20.30
2017-07-02T06:01:05.175Z,20.30
2017-07-02T06:03:33.466Z,20.50
2017-07-02T06:06:01.696Z,20.70
2017-07-02T06:08:30.175Z,20.80
2017-07-02T06:10:58.449Z,20.90
2017-07-02T06:13:27.500Z,20.90
2017-07-02T06:15:55.813Z,20.80
2017-07-02T06:18:24.430Z,20.90
2017-07-02T06:20:52.691Z,20.90
2017-07-02T06:23:20.954Z,20.90
2017-07-02T06:25:49.579Z,20.50
2017-07-02T06:28:17.817Z,20.50
2017-07-02T06:30:46.114Z,20.50
2017-07-02T06:33:14.384Z,20.70
2017-07-02T06:35:42.626Z,20.90
2017-07-02T06:38:11.295Z,21.10
2017-07-02T06:40:39.660Z,21.10
2017-07-02T06:43:07.880Z,21.20
2017-07-02T06:45:36.135Z,21.30
2017-07-02T06:48:04.376Z,21.50
2017-07-02T06:50:32.878Z,21.60
2017-07-02T06:53:01.142Z,21.70
2017-07-02T06:55:29.379Z,21.70
2017-07-02T06:57:57.608Z,21.20
2017-07-02T07:00:25.899Z,21.10
2017-07-02T07:02:54.519Z,21.30
2017-07-02T07:05:22.780Z,21.30
2017-07-02T07:07:51.081Z,21.50
2017-07-02T07:10:19.353Z,21.80
2017-07-02T07:12:47.595Z,22.10
2017-07-02T07:15:15.899Z,21.90
2017-07-02T07:17:44.143Z,21.80
2017-07-02T07:20:12.408Z,21.80
2017-07-02T07:22:40.695Z,22.00
2017-07-02T07:25:09.315Z,22.30
2017-07-02T07:27:37.672Z,22.30
2017-07-02T07:30:05.970Z,22.50
2017-07-02T07:32:34.197Z,22.60
2017-07-02T07:35:02.824Z,22.90
2017-07-02T07:37:31.110Z,22.90
2017-07-02T07:39:59.411Z,23.00
2017-07-02T07:42:27.659Z,23.20
2017-07-02T07:44:55.927Z,23.30
2017-07-02T07:47:24.166Z,23.50
2017-07-02T07:49:52.796Z,23.50
2017-07-02T07:52:21.076Z,23.50
2017-07-02T07:54:49.341Z,23.50
2017-07-02T07:57:17.625Z,23.60
2017-07-02T07:59:46.107Z,23.60
2017-07-02T08:02:14.755Z,23.60
2017-07-02T08:04:43.368Z,23.70
2017-07-02T08:07:11.627Z,23.70
2017-07-02T08:09:39.863Z,23.90
2017-07-02T08:12:08.097Z,24.10
2017-07-02T08:14:36.455Z,24.20
2017-07-02T08:17:04.756Z,24.30
2017-07-02T08:19:32.987Z,24.00
2017-07-02T08:22:01.719Z,23.80
2017-07-02T08:24:29.979Z,23.80
2017-07-02T08:26:58.209Z,23.70
2017-07-02T08:29:26.543Z,23.80
2017-07-02T08:31:54.833Z,24.00
2017-07-02T08:34:23.195Z,24.20
2017-07-02T08:36:51.480Z,24.20
2017-07-02T08:39:19.987Z,24.10
2017-07-02T08:41:48.265Z,24.20
2017-07-02T08:44:16.544Z,24.50
2017-07-02T08:46:45.125Z,24.80
2017-07-02T08:49:13.373Z,25.00
2017-07-02T08:51:41.672Z,25.00
2017-07-02T08:54:12.738Z,25.00
2017-07-02T08:56:42.016Z,24.70
2017-07-02T08:59:10.464Z,24.70
2017-07-02T09:01:38.709Z,24.90
2017-07-02T09:04:07.337Z,25.00
2017-07-02T09:06:40.649Z,25.00
2017-07-02T09:09:12.367Z,24.90
2017-07-02T09:11:41.701Z,24.40
2017-07-02T09:14:11.008Z,23.90
2017-07-02T09:16:39.790Z,23.60
2017-07-02T09:19:08.439Z,23.40
2017-07-02T09:21:37.073Z,23.30
2017-07-02T09:24:06.064Z,23.30
2017-07-02T09:26:34.559Z,23.30
2017-07-02T09:29:03.024Z,23.30
2017-07-02T09:31:31.496Z,23.40
2017-07-02T09:33:59.982Z,23.40
2017-07-02T09:36:28.559Z,23.50
2017-07-02T09:38:57.117Z,23.50
2017-07-02T09:41:26.023Z,23.50
2017-07-02T09:43:54.600Z,23.40
2017-07-02T09:46:23.199Z,23.10
2017-07-02T09:48:52.089Z,23.00
2017-07-02T09:51:20.447Z,23.00
2017-07-02T09:53:48.962Z,23.10
2017-07-02T09:56:17.502Z,23.10
2017-07-02T09:58:46.117Z,23.20
2017-07-02T10:01:15.113Z,23.40
2017-07-02T10:03:43.692Z,23.40
2017-07-02T10:06:12.703Z,23.60
2017-07-02T10:08:41.215Z,24.10
2017-07-02T10:11:09.491Z,24.70
2017-07-02T10:13:38.054Z,24.80
2017-07-02T10:16:06.535Z,24.90
2017-07-02T10:18:35.072Z,24.80
2017-07-02T10:21:03.631Z,24.90
2017-07-02T10:23:32.071Z,25.10
2017-07-02T10:26:00.643Z,25.20
2017-07-02T10:28:29.170Z,25.20
2017-07-02T10:30:57.635Z,25.20
2017-07-02T10:33:26.120Z,25.50
2017-07-02T10:35:55.069Z,25.80
2017-07-02T10:38:23.554Z,25.80
2017-07-02T10:40:51.899Z,25.90
2017-07-02T10:43:20.166Z,26.10
2017-07-02T10:45:48.407Z,26.20
2017-07-02T10:48:17.071Z,26.30
2017-07-02T10:50:45.345Z,26.40
2017-07-02T10:53:13.585Z,26.60
2017-07-02T10:55:41.823Z,26.90
2017-07-02T10:58:10.475Z,26.30
2017-07-02T11:00:38.709Z,26.30
2017-07-02T11:03:07.026Z,25.90
2017-07-02T11:05:35.285Z,25.70
2017-07-02T11:08:03.512Z,25.50
2017-07-02T11:10:32.923Z,25.10
2017-07-02T11:13:01.209Z,25.10
2017-07-02T11:15:29.440Z,25.10
2017-07-02T11:17:57.692Z,24.90
2017-07-02T11:20:26.072Z,24.70
2017-07-02T11:22:54.297Z,24.60
2017-07-02T11:25:22.970Z,24.30
2017-07-02T11:27:51.251Z,24.30
2017-07-02T11:30:20.228Z,24.30
2017-07-02T11:32:48.666Z,24.10
2017-07-02T11:35:16.969Z,23.90
2017-07-02T11:37:45.212Z,23.80
2017-07-02T11:40:13.496Z,23.80
2017-07-02T11:42:41.785Z,23.60
2017-07-02T11:45:10.023Z,23.70
2017-07-02T11:47:38.594Z,23.60
2017-07-02T11:50:07.323Z,23.30
2017-07-02T11:52:35.569Z,23.30
2017-07-02T11:55:03.865Z,23.10
2017-07-02T11:57:32.172Z,23.10
2017-07-02T12:00:00.396Z,23.20
2017-07-02T12:02:29.015Z,23.20
2017-07-02T12:04:57.287Z,23.20
2017-07-02T12:07:25.545Z,23.30
2017-07-02T12:09:53.772Z,23.40
2017-07-02T12:12:22.039Z,23.40
2017-07-02T12:14:50.321Z,23.40
2017-07-02T12:17:18.555Z,23.40
2017-07-02T12:19:46.805Z,23.60
2017-07-02T12:22:16.031Z,23.00
2017-07-02T12:24:44.283Z,23.00
2017-07-02T12:27:12.523Z,22.80
2017-07-02T12:29:40.796Z,22.80
2017-07-02T12:32:09.066Z,22.90
2017-07-02T12:34:37.309Z,23.00
2017-07-02T12:37:05.596Z,23.10
2017-07-02T12:39:33.845Z,23.00
2017-07-02T12:42:02.075Z,22.90
2017-07-02T12:44:30.364Z,22.80
2017-07-02T12:46:58.595Z,22.80
2017-07-02T12:49:27.106Z,22.80
2017-07-02T12:51:55.809Z,22.70
2017-07-02T12:54:24.456Z,22.40
2017-07-02T12:56:52.694Z,22.40
2017-07-02T12:59:21.126Z,22.30
2017-07-02T13:01:49.352Z,22.30
2017-07-02T13:04:17.610Z,22.10
2017-07-02T13:06:46.329Z,22.10
2017-07-02T13:09:14.786Z,22.10
2017-07-02T13:11:43.746Z,22.10
2017-07-02T13:14:12.033Z,22.10
2017-07-02T13:16:40.283Z,22.10
2017-07-02T13:19:08.510Z,22.20
2017-07-02T13:21:36.790Z,22.20
2017-07-02T13:24:05.113Z,22.20
2017-07-02T13:26:33.368Z,22.10
2017-07-02T13:29:01.676Z,21.70
2017-07-02T13:31:29.918Z,21.70
2017-07-02T13:33:58.153Z,21.70
2017-07-02T13:36:26.820Z,21.70
2017-07-02T13:38:55.298Z,21.70
2017-07-02T13:41:24.057Z,21.50
2017-07-02T13:43:52.350Z,21.40
2017-07-02T13:46:20.588Z,21.40
2017-07-02T13:48:48.835Z,21.30
2017-07-02T13:51:17.140Z,21.20
2017-07-02T13:53:45.458Z,21.20
2017-07-02T13:56:13.684Z,21.20
2017-07-02T13:58:41.996Z,21.10
2017-07-02T14:01:10.240Z,21.10
2017-07-02T14:03:38.483Z,21.10
2017-07-02T14:06:07.180Z,21.40
2017-07-02T14:08:35.439Z,21.40
2017-07-02T14:11:04.103Z,21.60
2017-07-02T14:13:32.800Z,21.60
2017-07-02T14:16:01.054Z,21.60
2017-07-02T14:18:29.299Z,21.70
2017-07-02T14:20:57.581Z,21.90
2017-07-02T14:23:25.812Z,22.10
2017-07-02T14:25:54.447Z,21.60
2017-07-02T14:28:22.714Z,21.60
2017-07-02T14:30:50.947Z,21.80
2017-07-02T14:33:19.596Z,22.10
2017-07-02T14:35:47.881Z,22.10
2017-07-02T14:38:16.111Z,22.20
2017-07-02T14:40:44.437Z,22.30
2017-07-02T14:43:12.824Z,22.20
2017-07-02T14:45:41.045Z,22.20
2017-07-02T14:48:09.299Z,22.30
2017-07-02T14:50:37.559Z,22.40
2017-07-02T14:53:06.233Z,22.30
2017-07-02T14:55:34.465Z,22.30
2017-07-02T14:58:02.730Z,22.30
2017-07-02T15:00:31.041Z,22.30
2017-07-02T15:02:59.334Z,22.20
2017-07-02T15:05:27.624Z,21.80
2017-07-02T15:07:55.873Z,21.60
2017-07-02T15:10:24.105Z,21.60
2017-07-02T15:12:52.477Z,21.50
2017-07-02T15:15:21.990Z,21.40
2017-07-02T15:17:50.220Z,21.40
2017-07-02T15:20:18.487Z,21.40
2017-07-02T15:22:46.723Z,21.30
2017-07-02T15:25:14.961Z,21.20
2017-07-02T15:27:43.204Z,21.20
2017-07-02T15:30:11.452Z,21.20
2017-07-02T15:32:40.018Z,21.20
2017-07-02T15:35:08.649Z,21.30
2017-07-02T15:37:37.146Z,21.30
2017-07-02T15:40:05.493Z,21.20
2017-07-02T15:42:33.716Z,21.20
2017-07-02T15:45:01.984Z,21.30
2017-07-02T15:47:30.271Z,21.40
2017-07-02T15:49:58.506Z,21.50
2017-07-02T15:52:27.117Z,21.50
2017-07-02T15:54:55.552Z,21.70
2017-07-02T15:57:23.788Z,21.70
2017-07-02T15:59:52.415Z,21.80
2017-07-02T16:02:20.672Z,21.80
2017-07-02T16:04:48.906Z,21.80
2017-07-02T16:07:17.162Z,21.70
2017-07-02T16:09:45.415Z,21.70
2017-07-02T16:12:13.935Z,21.70
2017-07-02T16:14:42.622Z,21.70
2017-07-02T16:17:10.891Z,21.70
2017-07-02T16:19:39.145Z,21.70
2017-07-02T16:22:07.428Z,21.70
2017-07-02T16:24:35.681Z,21.60
2017-07-02T16:27:04.206Z,21.50
2017-07-02T16:29:32.470Z,21.40
2017-07-02T16:32:00.746Z,21.40
2017-07-02T16:34:29.137Z,21.40
2017-07-02T16:36:57.518Z,21.30
2017-07-02T16:39:25.760Z,21.20
2017-07-02T16:41:54.039Z,21.20
2017-07-02T16:44:22.661Z,21.30
2017-07-02T16:46:50.946Z,21.30
2017-07-02T16:49:19.274Z,21.40
2017-07-02T16:51:47.547Z,21.50
2017-07-02T16:54:15.802Z,21.50
2017-07-02T16:56:44.436Z,21.60
2017-07-02T16:59:12.704Z,21.70
2017-07-02T17:01:41.488Z,21.80
2017-07-02T17:04:09.742Z,21.80
2017-07-02T17:06:38.119Z,21.90
2017-07-02T17:09:06.508Z,21.90
2017-07-02T17:11:35.315Z,21.90
2017-07-02T17:14:03.795Z,21.90
2017-07-02T17:16:32.072Z,21.90
2017-07-02T17:19:00.494Z,21.80
2017-07-02T17:21:29.208Z,21.80
2017-07-02T17:23:57.448Z,21.90
2017-07-02T17:26:25.671Z,21.90
2017-07-02T17:28:53.916Z,21.90
2017-07-02T17:31:22.156Z,21.90
2017-07-02T17:33:50.526Z,21.80
2017-07-02T17:36:19.027Z,21.80
2017-07-02T17:38:47.254Z,21.80
2017-07-02T17:41:15.620Z,21.80
2017-07-02T17:43:43.865Z,21.70
2017-07-02T17:46:12.496Z,21.70
2017-07-02T17:48:40.773Z,21.70
2017-07-02T17:51:08.995Z,21.80
2017-07-02T17:53:37.229Z,21.80
2017-07-02T17:56:05.487Z,21.70
2017-07-02T17:58:33.968Z,21.70
2017-07-02T18:01:02.210Z,21.70
2017-07-02T18:03:30.990Z,21.70
2017-07-02T18:05:59.623Z,21.70
2017-07-02T18:08:27.851Z,21.70
2017-07-02T18:10:56.546Z,21.70
2017-07-02T18:13:24.783Z,21.70
2017-07-02T18:15:53.776Z,21.60
2017-07-02T18:18:22.360Z,21.60
2017-07-02T18:20:50.629Z,21.60
2017-07-02T18:23:18.852Z,21.60
2017-07-02T18:25:47.124Z,21.50
2017-07-02T18:28:15.748Z,21.40
2017-07-02T18:30:43.997Z,21.40
2017-07-02T18:33:12.261Z,21.40
2017-07-02T18:35:40.515Z,21.40
2017-07-02T18:38:08.772Z,21.40
2017-07-02T18:40:37.067Z,21.40
2017-07-02T18:43:05.306Z,21.40
2017-07-02T18:45:33.598Z,21.30
2017-07-02T18:48:01.968Z,21.30
2017-07-02T18:50:30.211Z,21.30
2017-07-02T18:52:58.750Z,21.30
2017-07-02T18:55:28.177Z,21.30
2017-07-02T18:57:57.036Z,21.30
2017-07-02T19:00:25.275Z,21.20
2017-07-02T19:02:53.544Z,21.20
2017-07-02T19:05:21.820Z,21.20
2017-07-02T19:07:50.207Z,21.30
2017-07-02T19:10:18.439Z,21.30
2017-07-02T19:12:47.109Z,21.30
2017-07-02T19:15:15.476Z,21.30
2017-07-02T19:17:43.819Z,21.40
2017-07-02T19:20:12.051Z,21.30
2017-07-02T19:22:40.284Z,21.30
2017-07-02T19:25:08.659Z,21.30
2017-07-02T19:27:36.911Z,21.30
2017-07-02T19:30:05.183Z,21.40
2017-07-02T19:32:33.521Z,21.30
2017-07-02T19:35:01.764Z,21.30
2017-07-02T19:37:30.846Z,21.30
2017-07-02T19:39:59.124Z,21.40
2017-07-02T19:42:27.363Z,21.50
2017-07-02T19:44:56.321Z,21.50
2017-07-02T19:47:24.623Z,21.50
2017-07-02T19:49:53.348Z,21.40
2017-07-02T19:52:21.598Z,21.40
2017-07-02T19:54:49.908Z,21.20
2017-07-02T19:57:18.162Z,21.20
2017-07-02T19:59:46.424Z,21.30
2017-07-02T20:02:15.401Z,21.30
2017-07-02T20:04:43.666Z,21.30
2017-07-02T20:07:11.948Z,21.20
2017-07-02T20:09:40.215Z,21.20
2017-07-02T20:12:08.455Z,21.20
2017-07-02T20:14:36.702Z,21.10
2017-07-02T20:17:05.373Z,21.00
2017-07-02T20:19:34.201Z,21.10
2017-07-02T20:22:02.522Z,21.10
2017-07-02T20:24:30.869Z,21.10
2017-07-02T20:26:59.099Z,21.10
2017-07-02T20:29:27.404Z,21.10
2017-07-02T20:31:55.772Z,21.00
2017-07-02T20:34:24.058Z,21.00
2017-07-02T20:36:52.308Z,20.90
2017-07-02T20:39:20.584Z,21.00
2017-07-02T20:41:48.819Z,21.10
2017-07-02T20:44:17.057Z,21.20
2017-07-02T20:46:45.337Z,21.10
2017-07-02T20:49:13.572Z,21.10
2017-07-02T20:51:41.804Z,21.10
2017-07-02T20:54:10.076Z,21.10
2017-07-02T20:56:38.308Z,21.10
2017-07-02T20:59:06.961Z,20.90
2017-07-02T21:01:35.236Z,20.90
2017-07-02T21:04:03.463Z,20.90
2017-07-02T21:06:31.695Z,20.80
2017-07-02T21:08:59.997Z,20.60
2017-07-02T21:11:28.621Z,20.60
2017-07-02T21:13:56.862Z,20.60
2017-07-02T21:16:25.191Z,20.50
2017-07-02T21:18:53.681Z,20.50
2017-07-02T21:21:21.916Z,20.60
2017-07-02T21:23:50.261Z,20.50
2017-07-02T21:26:19.031Z,20.60
2017-07-02T21:28:47.652Z,20.60
2017-07-02T21:31:15.904Z,20.60
2017-07-02T21:33:44.539Z,21.10
2017-07-02T21:36:12.853Z,21.10
2017-07-02T21:38:41.198Z,21.30
2017-07-02T21:41:09.707Z,21.50
2017-07-02T21:43:37.945Z,21.60
2017-07-02T21:46:06.249Z,21.70
2017-07-02T21:48:35.306Z,21.70
2017-07-02T21:51:03.557Z,21.80
2017-07-02T21:53:31.808Z,21.80
2017-07-02T21:56:00.455Z,21.80
2017-07-02T21:58:28.692Z,21.80
2017-07-02T22:00:57.455Z,21.80
2017-07-02T22:03:25.727Z,21.70
2017-07-02T22:05:53.951Z,21.60
2017-07-02T22:08:22.244Z,21.60
2017-07-02T22:10:50.471Z,21.70
2017-07-02T22:13:19.092Z,21.50
2017-07-02T22:15:47.359Z,21.50
2017-07-02T22:18:15.678Z,21.50
2017-07-02T22:20:46.476Z,21.60
2017-07-02T22:23:14.764Z,21.60
2017-07-02T22:25:43.083Z,21.60
2017-07-02T22:28:11.477Z,21.70
2017-07-02T22:30:39.859Z,21.60
2017-07-02T22:33:08.178Z,21.60
2017-07-02T22:35:36.410Z,21.60
2017-07-02T22:38:05.072Z,21.60
2017-07-02T22:40:33.299Z,21.60
2017-07-02T22:43:01.536Z,21.60
2017-07-02T22:45:30.514Z,21.60
2017-07-02T22:47:58.991Z,21.60
2017-07-02T22:50:27.235Z,21.60
2017-07-02T22:52:55.507Z,21.60
2017-07-02T22:55:23.745Z,21.60
2017-07-02T22:57:52.375Z,21.70
2017-07-02T23:00:20.666Z,21.70
2017-07-02T23:02:48.898Z,21.60
2017-07-02T23:05:17.131Z,21.60
2017-07-02T23:07:45.440Z,21.20
2017-07-02T23:10:13.688Z,21.10
2017-07-02T23:12:42.157Z,21.20
2017-07-02T23:15:10.425Z,21.20
2017-07-02T23:17:38.643Z,21.40
2017-07-02T23:20:06.904Z,21.30
2017-07-02T23:22:35.607Z,21.30
2017-07-02T23:25:03.849Z,21.30
2017-07-02T23:27:32.081Z,21.30
2017-07-02T23:30:00.348Z,21.20
2017-07-02T23:32:28.601Z,20.90
2017-07-02T23:34:57.225Z,20.50
2017-07-02T23:37:25.506Z,20.50
2017-07-02T23:39:54.196Z,20.20
2017-07-02T23:42:22.699Z,20.30
2017-07-02T23:44:51.051Z,20.20
2017-07-02T23:47:19.283Z,20.10
2017-07-02T23:49:48.145Z,20.40
2017-07-02T23:52:17.188Z,20.40
2017-07-02T23:54:45.588Z,20.60
2017-07-02T23:57:13.856Z,20.70
2017-07-02T23:59:42.129Z,20.80
